sensor_id;sensor_type;location;lat;lon;timestamp;temperature;humidity
8715;DHT22;4394;51.208;8.904;2023-08-20T00:00:07;21.30;99.90
8715;DHT22;4394;51.208;8.904;2023-08-20T00:02:59;21.30;99.90
8715;DHT22;4394;51.208;8.904;2023-08-20T00:05:49;21.50;99.90
8715;DHT22;4394;51.208;8.904;2023-08-20T00:08:37;21.40;99.90
8715;DHT22;4394;51.208;8.904;2023-08-20T00:11:25;21.40;99.90
8715;DHT22;4394;51.208;8.904;2023-08-20T00:14:16;21.30;99.90
8715;DHT22;4394;51.208;8.904;2023-08-20T00:17:06;21.60;99.90
8715;DHT22;4394;51.208;8.904;2023-08-20T00:19:54;21.40;99.90
8715;DHT22;4394;51.208;8.904;2023-08-20T00:22:43;21.30;99.90
8715;DHT22;4394;51.208;8.904;2023-08-20T00:25:33;21.20;99.90
8715;DHT22;4394;51.208;8.904;2023-08-20T00:28:21;21.20;99.90
8715;DHT22;4394;51.208;8.904;2023-08-20T00:31:09;21.10;99.90
8715;DHT22;4394;51.208;8.904;2023-08-20T00:33:58;21.20;99.90
8715;DHT22;4394;51.208;8.904;2023-08-20T00:36:53;21.10;99.90
8715;DHT22;4394;51.208;8.904;2023-08-20T00:39:41;21.10;99.90
8715;DHT22;4394;51.208;8.904;2023-08-20T00:42:29;21.00;99.90
8715;DHT22;4394;51.208;8.904;2023-08-20T00:45:17;20.90;99.90
8715;DHT22;4394;51.208;8.904;2023-08-20T00:48:06;20.90;99.90
8715;DHT22;4394;51.208;8.904;2023-08-20T00:50:56;20.90;99.90
8715;DHT22;4394;51.208;8.904;2023-08-20T00:53:44;20.80;99.90
8715;DHT22;4394;51.208;8.904;2023-08-20T00:56:32;20.80;99.90
8715;DHT22;4394;51.208;8.904;2023-08-20T00:59:21;20.80;99.90
8715;DHT22;4394;51.208;8.904;2023-08-20T01:02:09;20.80;99.90
8715;DHT22;4394;51.208;8.904;2023-08-20T01:04:57;20.80;99.90
8715;DHT22;4394;51.208;8.904;2023-08-20T01:08:00;20.80;99.90
8715;DHT22;4394;51.208;8.904;2023-08-20T01:10:55;20.90;99.90
8715;DHT22;4394;51.208;8.904;2023-08-20T01:13:44;20.80;99.90
8715;DHT22;4394;51.208;8.904;2023-08-20T01:16:33;20.80;99.90
8715;DHT22;4394;51.208;8.904;2023-08-20T01:19:22;20.70;99.90
8715;DHT22;4394;51.208;8.904;2023-08-20T01:22:35;20.70;99.90
8715;DHT22;4394;51.208;8.904;2023-08-20T01:25:39;20.70;99.90
8715;DHT22;4394;51.208;8.904;2023-08-20T01:28:34;20.70;99.90
8715;DHT22;4394;51.208;8.904;2023-08-20T01:31:24;20.70;99.90
8715;DHT22;4394;51.208;8.904;2023-08-20T01:34:13;20.70;99.90
8715;DHT22;4394;51.208;8.904;2023-08-20T01:37:01;20.80;99.90
8715;DHT22;4394;51.208;8.904;2023-08-20T01:39:50;20.80;99.90
8715;DHT22;4394;51.208;8.904;2023-08-20T01:42:38;20.80;99.90
8715;DHT22;4394;51.208;8.904;2023-08-20T01:45:28;20.80;99.90
8715;DHT22;4394;51.208;8.904;2023-08-20T01:48:16;21.00;99.90
8715;DHT22;4394;51.208;8.904;2023-08-20T01:51:04;20.90;99.90
8715;DHT22;4394;51.208;8.904;2023-08-20T01:53:52;20.90;99.90
8715;DHT22;4394;51.208;8.904;2023-08-20T01:56:40;20.80;99.90
8715;DHT22;4394;51.208;8.904;2023-08-20T01:59:28;20.80;99.90
8715;DHT22;4394;51.208;8.904;2023-08-20T02:02:18;20.70;99.90
8715;DHT22;4394;51.208;8.904;2023-08-20T02:05:06;20.60;99.90
8715;DHT22;4394;51.208;8.904;2023-08-20T02:07:55;20.60;99.90
8715;DHT22;4394;51.208;8.904;2023-08-20T02:10:43;20.60;99.90
8715;DHT22;4394;51.208;8.904;2023-08-20T02:13:31;20.60;99.90
8715;DHT22;4394;51.208;8.904;2023-08-20T02:16:19;20.60;99.90
8715;DHT22;4394;51.208;8.904;2023-08-20T02:19:09;20.60;99.90
8715;DHT22;4394;51.208;8.904;2023-08-20T02:21:57;20.50;99.90
8715;DHT22;4394;51.208;8.904;2023-08-20T02:24:45;20.90;99.90
8715;DHT22;4394;51.208;8.904;2023-08-20T02:27:33;20.70;99.90
8715;DHT22;4394;51.208;8.904;2023-08-20T02:30:22;20.60;99.90
8715;DHT22;4394;51.208;8.904;2023-08-20T02:33:10;20.60;99.90
8715;DHT22;4394;51.208;8.904;2023-08-20T02:36:02;20.90;99.90
8715;DHT22;4394;51.208;8.904;2023-08-20T02:38:50;20.80;99.90
8715;DHT22;4394;51.208;8.904;2023-08-20T02:41:38;20.70;99.90
8715;DHT22;4394;51.208;8.904;2023-08-20T02:44:26;20.70;99.90
8715;DHT22;4394;51.208;8.904;2023-08-20T02:47:15;20.60;99.90
8715;DHT22;4394;51.208;8.904;2023-08-20T02:50:03;20.60;99.90
8715;DHT22;4394;51.208;8.904;2023-08-20T02:52:52;20.50;99.90
8715;DHT22;4394;51.208;8.904;2023-08-20T02:55:41;20.40;99.90
8715;DHT22;4394;51.208;8.904;2023-08-20T02:58:29;20.40;99.90
8715;DHT22;4394;51.208;8.904;2023-08-20T03:01:18;20.30;99.90
8715;DHT22;4394;51.208;8.904;2023-08-20T03:04:07;20.30;99.90
8715;DHT22;4394;51.208;8.904;2023-08-20T03:06:55;20.20;99.90
8715;DHT22;4394;51.208;8.904;2023-08-20T03:09:44;20.20;99.90
8715;DHT22;4394;51.208;8.904;2023-08-20T03:12:32;20.20;99.90
8715;DHT22;4394;51.208;8.904;2023-08-20T03:15:20;20.10;99.90
8715;DHT22;4394;51.208;8.904;2023-08-20T03:18:08;20.10;99.90
8715;DHT22;4394;51.208;8.904;2023-08-20T03:20:57;20.10;99.90
8715;DHT22;4394;51.208;8.904;2023-08-20T03:23:45;20.50;99.90
8715;DHT22;4394;51.208;8.904;2023-08-20T03:26:35;20.20;99.90
8715;DHT22;4394;51.208;8.904;2023-08-20T03:29:24;20.10;99.90
8715;DHT22;4394;51.208;8.904;2023-08-20T03:32:12;20.00;99.90
8715;DHT22;4394;51.208;8.904;2023-08-20T03:35:00;19.90;99.90
8715;DHT22;4394;51.208;8.904;2023-08-20T03:37:48;19.90;99.90
8715;DHT22;4394;51.208;8.904;2023-08-20T03:40:36;19.80;99.90
8715;DHT22;4394;51.208;8.904;2023-08-20T03:43:26;19.90;99.90
8715;DHT22;4394;51.208;8.904;2023-08-20T03:46:14;19.90;99.90
8715;DHT22;4394;51.208;8.904;2023-08-20T03:49:03;19.90;99.90
8715;DHT22;4394;51.208;8.904;2023-08-20T03:51:51;19.90;99.90
8715;DHT22;4394;51.208;8.904;2023-08-20T03:54:39;20.00;99.90
8715;DHT22;4394;51.208;8.904;2023-08-20T03:57:27;20.00;99.90
8715;DHT22;4394;51.208;8.904;2023-08-20T04:00:17;20.30;99.90
8715;DHT22;4394;51.208;8.904;2023-08-20T04:03:05;20.20;99.90
8715;DHT22;4394;51.208;8.904;2023-08-20T04:05:53;20.20;99.90
8715;DHT22;4394;51.208;8.904;2023-08-20T04:08:41;20.20;99.90
8715;DHT22;4394;51.208;8.904;2023-08-20T04:11:30;20.00;99.90
8715;DHT22;4394;51.208;8.904;2023-08-20T04:14:18;20.20;99.90
8715;DHT22;4394;51.208;8.904;2023-08-20T04:17:07;20.20;99.90
8715;DHT22;4394;51.208;8.904;2023-08-20T04:19:55;20.20;99.90
8715;DHT22;4394;51.208;8.904;2023-08-20T04:22:43;20.20;99.90
8715;DHT22;4394;51.208;8.904;2023-08-20T04:25:31;20.20;99.90
8715;DHT22;4394;51.208;8.904;2023-08-20T04:28:19;20.20;99.90
8715;DHT22;4394;51.208;8.904;2023-08-20T04:31:08;20.20;99.90
8715;DHT22;4394;51.208;8.904;2023-08-20T04:33:57;20.20;99.90
8715;DHT22;4394;51.208;8.904;2023-08-20T04:36:45;20.20;99.90
8715;DHT22;4394;51.208;8.904;2023-08-20T04:39:33;20.20;99.90
8715;DHT22;4394;51.208;8.904;2023-08-20T04:42:21;20.20;99.90
8715;DHT22;4394;51.208;8.904;2023-08-20T04:45:09;20.20;99.90
8715;DHT22;4394;51.208;8.904;2023-08-20T04:47:58;20.20;99.90
8715;DHT22;4394;51.208;8.904;2023-08-20T04:50:48;20.20;99.90
8715;DHT22;4394;51.208;8.904;2023-08-20T04:53:36;20.20;99.90
8715;DHT22;4394;51.208;8.904;2023-08-20T04:56:24;20.30;99.90
8715;DHT22;4394;51.208;8.904;2023-08-20T04:59:13;20.30;99.90
8715;DHT22;4394;51.208;8.904;2023-08-20T05:02:01;20.30;99.90
8715;DHT22;4394;51.208;8.904;2023-08-20T05:04:49;20.30;99.90
8715;DHT22;4394;51.208;8.904;2023-08-20T05:07:39;20.40;99.90
8715;DHT22;4394;51.208;8.904;2023-08-20T05:10:28;20.40;99.90
8715;DHT22;4394;51.208;8.904;2023-08-20T05:13:16;20.40;99.90
8715;DHT22;4394;51.208;8.904;2023-08-20T05:16:04;20.50;99.90
8715;DHT22;4394;51.208;8.904;2023-08-20T05:18:52;20.50;99.90
8715;DHT22;4394;51.208;8.904;2023-08-20T05:21:40;20.60;99.90
8715;DHT22;4394;51.208;8.904;2023-08-20T05:24:29;20.60;99.90
8715;DHT22;4394;51.208;8.904;2023-08-20T05:27:18;20.60;99.90
8715;DHT22;4394;51.208;8.904;2023-08-20T05:30:07;20.60;99.90
8715;DHT22;4394;51.208;8.904;2023-08-20T05:32:56;20.60;99.90
8715;DHT22;4394;51.208;8.904;2023-08-20T05:35:44;20.60;99.90
8715;DHT22;4394;51.208;8.904;2023-08-20T05:38:33;21.10;99.90
8715;DHT22;4394;51.208;8.904;2023-08-20T05:41:22;21.00;99.90
8715;DHT22;4394;51.208;8.904;2023-08-20T05:44:10;20.90;99.90
8715;DHT22;4394;51.208;8.904;2023-08-20T05:46:58;20.90;99.90
8715;DHT22;4394;51.208;8.904;2023-08-20T05:49:48;21.30;99.90
8715;DHT22;4394;51.208;8.904;2023-08-20T05:52:36;21.10;99.90
8715;DHT22;4394;51.208;8.904;2023-08-20T05:55:24;21.10;99.90
8715;DHT22;4394;51.208;8.904;2023-08-20T05:58:14;21.10;99.90
8715;DHT22;4394;51.208;8.904;2023-08-20T06:01:02;21.00;99.90
8715;DHT22;4394;51.208;8.904;2023-08-20T06:03:50;21.00;99.90
8715;DHT22;4394;51.208;8.904;2023-08-20T06:06:38;20.90;99.90
8715;DHT22;4394;51.208;8.904;2023-08-20T06:09:27;20.90;99.90
8715;DHT22;4394;51.208;8.904;2023-08-20T06:12:15;21.00;99.90
8715;DHT22;4394;51.208;8.904;2023-08-20T06:15:05;21.00;99.90
8715;DHT22;4394;51.208;8.904;2023-08-20T06:17:54;21.00;99.90
8715;DHT22;4394;51.208;8.904;2023-08-20T06:20:42;21.00;99.90
8715;DHT22;4394;51.208;8.904;2023-08-20T06:23:30;21.10;99.90
8715;DHT22;4394;51.208;8.904;2023-08-20T06:26:30;21.10;99.90
8715;DHT22;4394;51.208;8.904;2023-08-20T06:29:18;21.10;99.90
8715;DHT22;4394;51.208;8.904;2023-08-20T06:32:09;21.20;99.90
8715;DHT22;4394;51.208;8.904;2023-08-20T06:34:58;21.20;99.90
8715;DHT22;4394;51.208;8.904;2023-08-20T06:37:46;21.30;99.90
8715;DHT22;4394;51.208;8.904;2023-08-20T06:40:35;21.30;99.90
8715;DHT22;4394;51.208;8.904;2023-08-20T06:43:23;21.40;99.90
8715;DHT22;4394;51.208;8.904;2023-08-20T06:46:11;21.40;99.90
8715;DHT22;4394;51.208;8.904;2023-08-20T06:49:01;21.40;99.90
8715;DHT22;4394;51.208;8.904;2023-08-20T06:51:49;21.50;99.90
8715;DHT22;4394;51.208;8.904;2023-08-20T06:54:37;21.60;99.90
8715;DHT22;4394;51.208;8.904;2023-08-20T06:57:25;21.60;99.90
8715;DHT22;4394;51.208;8.904;2023-08-20T07:00:13;21.70;99.90
8715;DHT22;4394;51.208;8.904;2023-08-20T07:03:01;21.70;99.90
8715;DHT22;4394;51.208;8.904;2023-08-20T07:05:51;21.70;99.90
8715;DHT22;4394;51.208;8.904;2023-08-20T07:08:39;21.70;99.90
8715;DHT22;4394;51.208;8.904;2023-08-20T07:11:28;21.70;99.90
8715;DHT22;4394;51.208;8.904;2023-08-20T07:14:16;21.70;99.90
8715;DHT22;4394;51.208;8.904;2023-08-20T07:17:04;21.70;99.90
8715;DHT22;4394;51.208;8.904;2023-08-20T07:19:52;21.80;99.90
8715;DHT22;4394;51.208;8.904;2023-08-20T07:22:41;21.80;99.90
8715;DHT22;4394;51.208;8.904;2023-08-20T07:25:29;21.90;99.90
8715;DHT22;4394;51.208;8.904;2023-08-20T07:28:18;21.90;99.90
8715;DHT22;4394;51.208;8.904;2023-08-20T07:31:13;21.90;99.90
8715;DHT22;4394;51.208;8.904;2023-08-20T07:34:02;22.00;99.90
8715;DHT22;4394;51.208;8.904;2023-08-20T07:36:52;22.00;99.90
8715;DHT22;4394;51.208;8.904;2023-08-20T07:39:41;22.00;99.90
8715;DHT22;4394;51.208;8.904;2023-08-20T07:42:29;22.00;99.90
8715;DHT22;4394;51.208;8.904;2023-08-20T07:45:18;22.00;99.90
8715;DHT22;4394;51.208;8.904;2023-08-20T07:48:06;22.00;99.90
8715;DHT22;4394;51.208;8.904;2023-08-20T07:50:54;22.00;99.90
8715;DHT22;4394;51.208;8.904;2023-08-20T07:53:42;22.10;99.90
8715;DHT22;4394;51.208;8.904;2023-08-20T07:56:32;22.20;99.90
8715;DHT22;4394;51.208;8.904;2023-08-20T07:59:20;22.30;99.90
8715;DHT22;4394;51.208;8.904;2023-08-20T08:02:08;22.40;99.90
8715;DHT22;4394;51.208;8.904;2023-08-20T08:04:56;22.50;99.90
8715;DHT22;4394;51.208;8.904;2023-08-20T08:07:44;22.60;99.90
8715;DHT22;4394;51.208;8.904;2023-08-20T08:10:32;22.60;99.90
8715;DHT22;4394;51.208;8.904;2023-08-20T08:13:22;22.60;99.90
8715;DHT22;4394;51.208;8.904;2023-08-20T08:16:11;23.00;99.90
8715;DHT22;4394;51.208;8.904;2023-08-20T08:18:59;22.80;99.90
8715;DHT22;4394;51.208;8.904;2023-08-20T08:21:48;22.80;99.90
8715;DHT22;4394;51.208;8.904;2023-08-20T08:24:39;22.80;99.90
8715;DHT22;4394;51.208;8.904;2023-08-20T08:27:29;22.80;99.90
8715;DHT22;4394;51.208;8.904;2023-08-20T08:30:22;22.90;99.90
8715;DHT22;4394;51.208;8.904;2023-08-20T08:33:10;22.90;99.90
8715;DHT22;4394;51.208;8.904;2023-08-20T08:35:58;22.90;99.90
8715;DHT22;4394;51.208;8.904;2023-08-20T08:38:46;22.90;99.90
8715;DHT22;4394;51.208;8.904;2023-08-20T08:41:35;22.90;99.90
8715;DHT22;4394;51.208;8.904;2023-08-20T08:44:27;23.00;99.90
8715;DHT22;4394;51.208;8.904;2023-08-20T08:47:18;23.00;99.90
8715;DHT22;4394;51.208;8.904;2023-08-20T08:50:08;23.10;99.90
8715;DHT22;4394;51.208;8.904;2023-08-20T08:52:57;23.60;99.90
8715;DHT22;4394;51.208;8.904;2023-08-20T08:55:45;23.40;99.90
8715;DHT22;4394;51.208;8.904;2023-08-20T08:58:35;23.50;99.90
8715;DHT22;4394;51.208;8.904;2023-08-20T09:01:23;23.50;99.90
8715;DHT22;4394;51.208;8.904;2023-08-20T09:04:13;23.50;99.90
8715;DHT22;4394;51.208;8.904;2023-08-20T09:07:01;23.50;99.90
8715;DHT22;4394;51.208;8.904;2023-08-20T09:09:50;23.50;99.90
8715;DHT22;4394;51.208;8.904;2023-08-20T09:12:38;23.50;99.90
8715;DHT22;4394;51.208;8.904;2023-08-20T09:15:33;23.60;99.90
8715;DHT22;4394;51.208;8.904;2023-08-20T09:18:22;23.60;99.90
8715;DHT22;4394;51.208;8.904;2023-08-20T09:21:12;23.70;99.90
8715;DHT22;4394;51.208;8.904;2023-08-20T09:24:01;23.80;99.90
8715;DHT22;4394;51.208;8.904;2023-08-20T09:26:50;23.90;99.90
8715;DHT22;4394;51.208;8.904;2023-08-20T09:29:44;24.00;99.90
8715;DHT22;4394;51.208;8.904;2023-08-20T09:32:33;24.20;99.90
8715;DHT22;4394;51.208;8.904;2023-08-20T09:35:21;24.30;99.90
8715;DHT22;4394;51.208;8.904;2023-08-20T09:38:11;24.40;99.90
8715;DHT22;4394;51.208;8.904;2023-08-20T09:40:59;24.50;99.90
8715;DHT22;4394;51.208;8.904;2023-08-20T09:43:48;24.60;99.90
8715;DHT22;4394;51.208;8.904;2023-08-20T09:46:42;24.60;99.90
8715;DHT22;4394;51.208;8.904;2023-08-20T09:49:32;24.70;99.90
8715;DHT22;4394;51.208;8.904;2023-08-20T09:52:28;24.60;99.90
8715;DHT22;4394;51.208;8.904;2023-08-20T09:55:21;24.60;99.90
8715;DHT22;4394;51.208;8.904;2023-08-20T09:58:11;24.60;99.90
8715;DHT22;4394;51.208;8.904;2023-08-20T10:00:59;24.60;99.90
8715;DHT22;4394;51.208;8.904;2023-08-20T10:03:48;24.60;99.90
8715;DHT22;4394;51.208;8.904;2023-08-20T10:06:37;24.60;99.90
8715;DHT22;4394;51.208;8.904;2023-08-20T10:09:25;24.70;99.90
8715;DHT22;4394;51.208;8.904;2023-08-20T10:12:16;24.70;99.90
8715;DHT22;4394;51.208;8.904;2023-08-20T10:15:06;24.80;99.90
8715;DHT22;4394;51.208;8.904;2023-08-20T10:17:57;24.90;99.90
8715;DHT22;4394;51.208;8.904;2023-08-20T10:20:45;24.90;99.90
8715;DHT22;4394;51.208;8.904;2023-08-20T10:23:33;25.00;99.90
8715;DHT22;4394;51.208;8.904;2023-08-20T10:26:22;25.00;99.90
8715;DHT22;4394;51.208;8.904;2023-08-20T10:29:38;25.00;99.90
8715;DHT22;4394;51.208;8.904;2023-08-20T10:32:47;25.10;99.90
8715;DHT22;4394;51.208;8.904;2023-08-20T10:35:47;25.20;99.90
8715;DHT22;4394;51.208;8.904;2023-08-20T10:38:37;25.30;99.90
8715;DHT22;4394;51.208;8.904;2023-08-20T10:41:26;25.30;99.90
8715;DHT22;4394;51.208;8.904;2023-08-20T10:44:14;25.40;99.90
8715;DHT22;4394;51.208;8.904;2023-08-20T10:47:07;25.30;99.90
8715;DHT22;4394;51.208;8.904;2023-08-20T10:49:55;25.50;99.90
8715;DHT22;4394;51.208;8.904;2023-08-20T10:52:48;25.50;99.90
8715;DHT22;4394;51.208;8.904;2023-08-20T10:55:36;25.50;99.90
8715;DHT22;4394;51.208;8.904;2023-08-20T10:58:24;25.50;99.90
8715;DHT22;4394;51.208;8.904;2023-08-20T11:01:18;25.50;99.90
8715;DHT22;4394;51.208;8.904;2023-08-20T11:04:09;25.50;99.90
8715;DHT22;4394;51.208;8.904;2023-08-20T11:06:57;25.50;99.90
8715;DHT22;4394;51.208;8.904;2023-08-20T11:09:46;25.60;99.90
8715;DHT22;4394;51.208;8.904;2023-08-20T11:12:35;25.70;99.90
8715;DHT22;4394;51.208;8.904;2023-08-20T11:15:23;25.70;99.90
8715;DHT22;4394;51.208;8.904;2023-08-20T11:18:13;25.90;99.90
8715;DHT22;4394;51.208;8.904;2023-08-20T11:21:03;26.00;99.90
8715;DHT22;4394;51.208;8.904;2023-08-20T11:23:51;26.10;99.90
8715;DHT22;4394;51.208;8.904;2023-08-20T11:26:43;26.30;99.90
8715;DHT22;4394;51.208;8.904;2023-08-20T11:29:31;26.30;99.90
8715;DHT22;4394;51.208;8.904;2023-08-20T11:32:19;26.40;99.90
8715;DHT22;4394;51.208;8.904;2023-08-20T11:35:08;26.50;99.90
8715;DHT22;4394;51.208;8.904;2023-08-20T11:37:58;26.60;99.90
8715;DHT22;4394;51.208;8.904;2023-08-20T11:40:46;26.60;99.90
8715;DHT22;4394;51.208;8.904;2023-08-20T11:43:34;26.70;99.90
8715;DHT22;4394;51.208;8.904;2023-08-20T11:46:24;26.70;99.90
8715;DHT22;4394;51.208;8.904;2023-08-20T11:49:12;26.80;99.90
8715;DHT22;4394;51.208;8.904;2023-08-20T11:52:01;26.80;99.90
8715;DHT22;4394;51.208;8.904;2023-08-20T11:54:50;26.90;99.90
8715;DHT22;4394;51.208;8.904;2023-08-20T11:57:38;26.90;99.90
8715;DHT22;4394;51.208;8.904;2023-08-20T12:00:28;26.90;99.90
8715;DHT22;4394;51.208;8.904;2023-08-20T12:03:18;27.00;99.90
8715;DHT22;4394;51.208;8.904;2023-08-20T12:06:17;27.10;99.90
8715;DHT22;4394;51.208;8.904;2023-08-20T12:09:19;27.30;99.90
8715;DHT22;4394;51.208;8.904;2023-08-20T12:12:09;27.40;99.90
8715;DHT22;4394;51.208;8.904;2023-08-20T12:14:57;27.40;99.90
8715;DHT22;4394;51.208;8.904;2023-08-20T12:17:55;27.50;99.90
8715;DHT22;4394;51.208;8.904;2023-08-20T12:20:44;27.70;99.90
8715;DHT22;4394;51.208;8.904;2023-08-20T12:23:32;27.70;99.90
8715;DHT22;4394;51.208;8.904;2023-08-20T12:26:20;27.80;99.90
8715;DHT22;4394;51.208;8.904;2023-08-20T12:29:09;27.90;99.90
8715;DHT22;4394;51.208;8.904;2023-08-20T12:31:57;27.90;99.90
8715;DHT22;4394;51.208;8.904;2023-08-20T12:34:46;28.00;99.90
8715;DHT22;4394;51.208;8.904;2023-08-20T12:37:34;28.10;99.90
8715;DHT22;4394;51.208;8.904;2023-08-20T12:40:22;28.20;99.90
8715;DHT22;4394;51.208;8.904;2023-08-20T12:43:10;28.40;99.90
8715;DHT22;4394;51.208;8.904;2023-08-20T12:46:00;28.50;99.90
8715;DHT22;4394;51.208;8.904;2023-08-20T12:48:48;28.80;99.90
8715;DHT22;4394;51.208;8.904;2023-08-20T12:51:36;28.90;99.90
8715;DHT22;4394;51.208;8.904;2023-08-20T12:54:24;29.00;99.90
8715;DHT22;4394;51.208;8.904;2023-08-20T12:57:12;29.00;99.90
8715;DHT22;4394;51.208;8.904;2023-08-20T13:00:00;29.00;99.90
8715;DHT22;4394;51.208;8.904;2023-08-20T13:02:56;29.00;99.90
8715;DHT22;4394;51.208;8.904;2023-08-20T13:05:45;29.00;99.90
8715;DHT22;4394;51.208;8.904;2023-08-20T13:08:33;29.00;99.90
8715;DHT22;4394;51.208;8.904;2023-08-20T13:11:22;29.10;99.90
8715;DHT22;4394;51.208;8.904;2023-08-20T13:14:13;29.10;99.90
8715;DHT22;4394;51.208;8.904;2023-08-20T13:17:01;29.00;99.90
8715;DHT22;4394;51.208;8.904;2023-08-20T13:19:51;29.10;99.90
8715;DHT22;4394;51.208;8.904;2023-08-20T13:22:39;28.90;99.90
8715;DHT22;4394;51.208;8.904;2023-08-20T13:25:27;28.80;99.90
8715;DHT22;4394;51.208;8.904;2023-08-20T13:28:15;28.70;99.90
8715;DHT22;4394;51.208;8.904;2023-08-20T13:31:05;28.70;99.90
8715;DHT22;4394;51.208;8.904;2023-08-20T13:33:53;28.80;99.90
8715;DHT22;4394;51.208;8.904;2023-08-20T13:36:43;28.80;99.90
8715;DHT22;4394;51.208;8.904;2023-08-20T13:39:31;28.80;99.90
8715;DHT22;4394;51.208;8.904;2023-08-20T13:42:19;28.80;99.90
8715;DHT22;4394;51.208;8.904;2023-08-20T13:45:09;28.60;99.90
8715;DHT22;4394;51.208;8.904;2023-08-20T13:47:57;28.60;99.90
8715;DHT22;4394;51.208;8.904;2023-08-20T13:50:45;28.60;99.90
8715;DHT22;4394;51.208;8.904;2023-08-20T13:53:34;28.50;99.90
8715;DHT22;4394;51.208;8.904;2023-08-20T13:56:23;28.50;99.90
8715;DHT22;4394;51.208;8.904;2023-08-20T13:59:12;28.40;99.90
8715;DHT22;4394;51.208;8.904;2023-08-20T14:02:00;28.30;99.90
8715;DHT22;4394;51.208;8.904;2023-08-20T14:04:49;28.20;99.90
8715;DHT22;4394;51.208;8.904;2023-08-20T14:07:37;28.10;99.90
8715;DHT22;4394;51.208;8.904;2023-08-20T14:10:27;28.10;99.90
8715;DHT22;4394;51.208;8.904;2023-08-20T14:13:15;28.10;99.90
8715;DHT22;4394;51.208;8.904;2023-08-20T14:16:03;28.10;99.90
8715;DHT22;4394;51.208;8.904;2023-08-20T14:18:51;28.10;99.90
8715;DHT22;4394;51.208;8.904;2023-08-20T14:21:39;28.10;99.90
8715;DHT22;4394;51.208;8.904;2023-08-20T14:24:28;28.30;99.90
8715;DHT22;4394;51.208;8.904;2023-08-20T14:27:17;28.50;99.90
8715;DHT22;4394;51.208;8.904;2023-08-20T14:30:06;28.60;99.90
8715;DHT22;4394;51.208;8.904;2023-08-20T14:32:55;28.50;99.90
8715;DHT22;4394;51.208;8.904;2023-08-20T14:35:43;28.40;99.90
8715;DHT22;4394;51.208;8.904;2023-08-20T14:38:31;28.40;99.90
8715;DHT22;4394;51.208;8.904;2023-08-20T14:41:20;28.40;99.90
8715;DHT22;4394;51.208;8.904;2023-08-20T14:44:09;28.40;99.90
8715;DHT22;4394;51.208;8.904;2023-08-20T14:46:57;28.50;99.90
8715;DHT22;4394;51.208;8.904;2023-08-20T14:49:46;28.50;99.90
8715;DHT22;4394;51.208;8.904;2023-08-20T14:52:34;28.60;99.90
8715;DHT22;4394;51.208;8.904;2023-08-20T14:55:23;28.50;99.90
8715;DHT22;4394;51.208;8.904;2023-08-20T14:58:11;28.40;99.90
8715;DHT22;4394;51.208;8.904;2023-08-20T15:01:01;28.40;99.90
8715;DHT22;4394;51.208;8.904;2023-08-20T15:03:50;28.30;99.90
8715;DHT22;4394;51.208;8.904;2023-08-20T15:06:38;28.30;99.90
8715;DHT22;4394;51.208;8.904;2023-08-20T15:09:26;28.30;99.90
8715;DHT22;4394;51.208;8.904;2023-08-20T15:12:14;28.30;99.90
8715;DHT22;4394;51.208;8.904;2023-08-20T15:15:03;28.30;99.90
8715;DHT22;4394;51.208;8.904;2023-08-20T15:17:53;28.40;99.90
8715;DHT22;4394;51.208;8.904;2023-08-20T15:20:41;28.50;99.90
8715;DHT22;4394;51.208;8.904;2023-08-20T15:23:29;28.70;99.90
8715;DHT22;4394;51.208;8.904;2023-08-20T15:26:18;28.90;99.90
8715;DHT22;4394;51.208;8.904;2023-08-20T15:29:07;29.30;99.90
8715;DHT22;4394;51.208;8.904;2023-08-20T15:31:55;29.30;99.90
8715;DHT22;4394;51.208;8.904;2023-08-20T15:34:44;29.40;99.90
8715;DHT22;4394;51.208;8.904;2023-08-20T15:37:32;29.40;99.90
8715;DHT22;4394;51.208;8.904;2023-08-20T15:40:22;29.40;99.90
8715;DHT22;4394;51.208;8.904;2023-08-20T15:43:10;29.40;99.90
8715;DHT22;4394;51.208;8.904;2023-08-20T15:45:58;29.50;99.90
8715;DHT22;4394;51.208;8.904;2023-08-20T15:48:47;29.50;99.90
8715;DHT22;4394;51.208;8.904;2023-08-20T15:51:36;29.60;99.90
8715;DHT22;4394;51.208;8.904;2023-08-20T15:54:24;29.60;99.90
8715;DHT22;4394;51.208;8.904;2023-08-20T15:57:13;29.70;99.90
8715;DHT22;4394;51.208;8.904;2023-08-20T16:00:01;29.70;99.90
8715;DHT22;4394;51.208;8.904;2023-08-20T16:02:50;29.70;99.90
8715;DHT22;4394;51.208;8.904;2023-08-20T16:05:38;29.70;99.90
8715;DHT22;4394;51.208;8.904;2023-08-20T16:08:27;30.10;99.90
8715;DHT22;4394;51.208;8.904;2023-08-20T16:11:15;29.90;99.90
8715;DHT22;4394;51.208;8.904;2023-08-20T16:14:04;29.80;99.90
8715;DHT22;4394;51.208;8.904;2023-08-20T16:16:52;29.80;99.90
8715;DHT22;4394;51.208;8.904;2023-08-20T16:19:40;29.60;99.90
8715;DHT22;4394;51.208;8.904;2023-08-20T16:22:29;29.50;99.90
8715;DHT22;4394;51.208;8.904;2023-08-20T16:25:18;29.20;99.90
8715;DHT22;4394;51.208;8.904;2023-08-20T16:28:07;29.00;99.90
8715;DHT22;4394;51.208;8.904;2023-08-20T16:30:57;28.80;99.90
8715;DHT22;4394;51.208;8.904;2023-08-20T16:33:46;28.70;99.90
8715;DHT22;4394;51.208;8.904;2023-08-20T16:36:34;28.50;99.90
8715;DHT22;4394;51.208;8.904;2023-08-20T16:39:22;28.50;99.90
8715;DHT22;4394;51.208;8.904;2023-08-20T16:42:12;28.40;99.90
8715;DHT22;4394;51.208;8.904;2023-08-20T16:45:00;28.30;99.90
8715;DHT22;4394;51.208;8.904;2023-08-20T16:47:48;28.80;99.90
8715;DHT22;4394;51.208;8.904;2023-08-20T16:50:36;28.50;99.90
8715;DHT22;4394;51.208;8.904;2023-08-20T16:53:24;28.40;99.90
8715;DHT22;4394;51.208;8.904;2023-08-20T16:56:12;28.40;99.90
8715;DHT22;4394;51.208;8.904;2023-08-20T16:59:01;28.50;99.90
8715;DHT22;4394;51.208;8.904;2023-08-20T17:01:49;28.50;99.90
8715;DHT22;4394;51.208;8.904;2023-08-20T17:04:38;28.60;99.90
8715;DHT22;4394;51.208;8.904;2023-08-20T17:07:27;28.60;99.90
8715;DHT22;4394;51.208;8.904;2023-08-20T17:10:15;28.70;99.90
8715;DHT22;4394;51.208;8.904;2023-08-20T17:13:04;28.60;99.90
8715;DHT22;4394;51.208;8.904;2023-08-20T17:15:54;28.60;99.90
8715;DHT22;4394;51.208;8.904;2023-08-20T17:18:43;28.60;99.90
8715;DHT22;4394;51.208;8.904;2023-08-20T17:21:31;28.50;99.90
8715;DHT22;4394;51.208;8.904;2023-08-20T17:24:19;28.60;99.90
8715;DHT22;4394;51.208;8.904;2023-08-20T17:27:07;28.60;99.90
8715;DHT22;4394;51.208;8.904;2023-08-20T17:29:55;28.50;99.90
8715;DHT22;4394;51.208;8.904;2023-08-20T17:32:45;28.40;99.90
8715;DHT22;4394;51.208;8.904;2023-08-20T17:35:33;28.20;99.90
8715;DHT22;4394;51.208;8.904;2023-08-20T17:38:21;28.20;99.90
8715;DHT22;4394;51.208;8.904;2023-08-20T17:41:10;28.10;99.90
8715;DHT22;4394;51.208;8.904;2023-08-20T17:43:58;28.10;99.90
8715;DHT22;4394;51.208;8.904;2023-08-20T17:46:47;28.00;99.90
8715;DHT22;4394;51.208;8.904;2023-08-20T17:49:37;28.00;99.90
8715;DHT22;4394;51.208;8.904;2023-08-20T17:52:25;28.00;99.90
8715;DHT22;4394;51.208;8.904;2023-08-20T17:55:14;28.00;99.90
8715;DHT22;4394;51.208;8.904;2023-08-20T17:58:02;27.90;99.90
8715;DHT22;4394;51.208;8.904;2023-08-20T18:00:50;27.70;99.90
8715;DHT22;4394;51.208;8.904;2023-08-20T18:03:38;27.80;99.90
8715;DHT22;4394;51.208;8.904;2023-08-20T18:06:28;27.70;99.90
8715;DHT22;4394;51.208;8.904;2023-08-20T18:09:16;27.50;99.90
8715;DHT22;4394;51.208;8.904;2023-08-20T18:12:04;27.40;99.90
8715;DHT22;4394;51.208;8.904;2023-08-20T18:14:52;27.20;99.90
8715;DHT22;4394;51.208;8.904;2023-08-20T18:17:40;27.10;99.90
8715;DHT22;4394;51.208;8.904;2023-08-20T18:20:29;27.00;99.90
8715;DHT22;4394;51.208;8.904;2023-08-20T18:23:18;26.90;99.90